createdAt,value
2022-08-22T00:00:13.345Z,63.75
2022-08-22T00:02:46.809Z,62.65
2022-08-22T00:03:00.571Z,61.44
2022-08-22T00:03:00.571Z,61.16
2022-08-22T00:03:12.286Z,60.78
2022-08-22T00:03:15.046Z,63.04
2022-08-22T00:05:30.838Z,62.59
2022-08-22T00:07:50.692Z,62.62
2022-08-22T00:10:31.433Z,63.58
2022-08-22T00:12:42.685Z,66.15
2022-08-22T00:14:58.315Z,70.89
2022-08-22T00:17:22.883Z,74.02
2022-08-22T00:19:31.718Z,74.26
2022-08-22T00:21:44.800Z,73.25
2022-08-22T00:24:04.835Z,70.38
2022-08-22T00:26:15.816Z,68.32
2022-08-22T00:28:17.309Z,66.59
2022-08-22T00:30:19.750Z,65.64
2022-08-22T00:32:32.561Z,65.98
2022-08-22T00:34:51.153Z,70.71
2022-08-22T00:37:19.121Z,72.46
2022-08-22T00:39:31.500Z,71.61
2022-08-22T00:42:08.127Z,69.38
2022-08-22T00:44:32.326Z,67.00
2022-08-22T00:46:57.719Z,65.46
2022-08-22T00:49:11.191Z,64.42
2022-08-22T00:51:25.078Z,63.81
2022-08-22T00:53:54.305Z,63.74
2022-08-22T00:56:18.223Z,63.74
2022-08-22T00:58:42.925Z,64.04
2022-08-22T01:00:58.839Z,63.70
2022-08-22T01:03:09.746Z,64.13
2022-08-22T01:05:28.241Z,65.82
2022-08-22T01:07:38.174Z,67.88
2022-08-22T01:09:49.495Z,67.12
2022-08-22T01:12:05.928Z,67.07
2022-08-22T01:14:34.622Z,65.99
2022-08-22T01:16:36.752Z,64.54
2022-08-22T01:18:56.519Z,65.05
2022-08-22T01:21:44.821Z,68.02
2022-08-22T01:24:10.742Z,68.24
2022-08-22T01:26:44.780Z,66.99
2022-08-22T01:29:13.647Z,65.92
2022-08-22T01:31:44.455Z,65.18
2022-08-22T01:34:23.634Z,64.60
2022-08-22T01:36:38.624Z,64.66
2022-08-22T01:39:10.655Z,64.54
2022-08-22T01:41:17.177Z,64.22
2022-08-22T01:43:58.703Z,64.71
2022-08-22T01:46:01.511Z,66.15
2022-08-22T01:48:20.039Z,66.48
2022-08-22T01:50:25.080Z,65.95
2022-08-22T01:52:50.891Z,70.35
2022-08-22T01:55:24.524Z,70.29
2022-08-22T01:57:26.373Z,68.20
2022-08-22T01:59:42.434Z,67.02
2022-08-22T02:01:49.967Z,65.83
2022-08-22T02:04:02.544Z,65.40
2022-08-22T02:06:35.951Z,65.05
2022-08-22T02:09:01.962Z,65.22
2022-08-22T02:11:10.653Z,65.15
2022-08-22T02:13:12.894Z,65.83
2022-08-22T02:15:14.339Z,66.10
2022-08-22T02:17:50.779Z,67.12
2022-08-22T02:20:01.702Z,66.01
2022-08-22T02:22:31.132Z,65.43
2022-08-22T02:24:41.628Z,66.04
2022-08-22T02:27:05.060Z,65.69
2022-08-22T02:29:12.616Z,65.74
2022-08-22T02:31:17.135Z,66.51
2022-08-22T02:33:34.324Z,69.47
2022-08-22T02:35:59.882Z,67.92
2022-08-22T02:38:13.341Z,67.52
2022-08-22T02:41:10.741Z,66.84
2022-08-22T02:43:27.364Z,67.17
2022-08-22T02:45:35.797Z,66.50
2022-08-22T02:48:03.729Z,65.87
2022-08-22T02:50:05.841Z,65.18
2022-08-22T02:52:26.290Z,65.08
2022-08-22T02:54:45.936Z,65.05
2022-08-22T02:56:50.771Z,65.54
2022-08-22T02:59:18.697Z,67.10
2022-08-22T03:01:34.958Z,73.06
2022-08-22T03:03:41.069Z,69.66
2022-08-22T03:05:45.508Z,68.20
2022-08-22T03:08:03.441Z,67.28
2022-08-22T03:10:18.558Z,66.71
2022-08-22T03:12:41.779Z,66.08
2022-08-22T03:14:54.558Z,66.89
2022-08-22T03:17:05.911Z,67.96
2022-08-22T03:19:22.883Z,70.84
2022-08-22T03:21:28.064Z,71.27
2022-08-22T03:23:39.003Z,69.87
2022-08-22T03:26:08.081Z,68.80
2022-08-22T03:28:14.508Z,67.22
2022-08-22T03:30:56.236Z,66.52
2022-08-22T03:33:20.156Z,66.05
2022-08-22T03:35:43.626Z,65.89
2022-08-22T03:37:45.357Z,65.72
2022-08-22T03:39:59.822Z,66.00
2022-08-22T03:42:16.288Z,66.28
2022-08-22T03:44:17.728Z,70.24
2022-08-22T03:46:41.077Z,70.73
2022-08-22T03:49:33.218Z,69.16
2022-08-22T03:51:47.065Z,67.55
2022-08-22T03:53:54.615Z,67.16
2022-08-22T03:56:31.236Z,67.27
2022-08-22T03:59:09.954Z,67.30
2022-08-22T04:01:36.325Z,67.28
2022-08-22T04:04:02.674Z,67.30
2022-08-22T04:06:18.991Z,67.32
2022-08-22T04:08:29.340Z,67.21
2022-08-22T04:11:03.856Z,67.41
2022-08-22T04:13:37.625Z,67.31
2022-08-22T04:16:03.875Z,67.52
2022-08-22T04:18:17.443Z,67.64
2022-08-22T04:20:40.593Z,67.84
2022-08-22T04:23:14.946Z,67.81
2022-08-22T04:25:25.497Z,67.94
2022-08-22T04:27:43.666Z,67.84
2022-08-22T04:30:03.600Z,68.01
2022-08-22T04:32:14.648Z,67.85
2022-08-22T04:34:28.429Z,67.88
2022-08-22T04:36:42.300Z,68.01
2022-08-22T04:39:06.883Z,67.93
2022-08-22T04:41:12.284Z,67.69
2022-08-22T04:43:19.836Z,67.98
2022-08-22T04:46:08.066Z,67.50
2022-08-22T04:48:26.307Z,67.54
2022-08-22T04:50:50.430Z,67.60
2022-08-22T04:53:17.548Z,67.47
2022-08-22T04:55:46.276Z,67.48
2022-08-22T04:58:06.487Z,67.90
2022-08-22T05:00:11.308Z,67.29
2022-08-22T05:02:21.417Z,67.32
2022-08-22T05:04:31.816Z,66.83
2022-08-22T05:06:40.087Z,66.59
2022-08-22T05:08:43.721Z,66.18
2022-08-22T05:10:49.206Z,65.85
2022-08-22T05:13:03.081Z,65.37
2022-08-22T05:15:22.989Z,65.52
2022-08-22T05:17:29.314Z,65.38
2022-08-22T05:19:34.735Z,65.37
2022-08-22T05:21:40.466Z,65.22
2022-08-22T05:23:48.198Z,65.14
2022-08-22T05:25:54.398Z,64.98
2022-08-22T05:28:17.963Z,65.26
2022-08-22T05:30:25.382Z,65.23
2022-08-22T05:32:38.029Z,65.26
2022-08-22T05:34:42.441Z,65.12
2022-08-22T05:36:48.757Z,64.70
2022-08-22T05:39:08.738Z,65.24
2022-08-22T05:41:21.700Z,64.96
2022-08-22T05:43:25.510Z,64.07
2022-08-22T05:45:29.261Z,63.70
2022-08-22T05:47:41.052Z,63.47
2022-08-22T05:49:48.516Z,63.37
2022-08-22T05:52:11.844Z,62.88
2022-08-22T05:54:20.098Z,63.15
2022-08-22T05:56:34.670Z,63.55
2022-08-22T05:58:38.860Z,63.06
2022-08-22T06:00:43.985Z,62.67
2022-08-22T06:03:03.376Z,62.45
2022-08-22T06:05:11.391Z,62.69
2022-08-22T06:07:20.534Z,62.35
2022-08-22T06:09:46.379Z,62.53
2022-08-22T06:11:58.452Z,62.88
2022-08-22T06:14:17.887Z,62.69
2022-08-22T06:16:28.053Z,63.08
2022-08-22T06:18:31.545Z,62.94
2022-08-22T06:21:20.685Z,62.79
2022-08-22T06:23:27.853Z,62.33
2022-08-22T06:25:39.378Z,62.48
2022-08-22T06:27:42.688Z,63.55
2022-08-22T06:29:49.322Z,63.44
2022-08-22T06:31:51.237Z,63.77
2022-08-22T06:34:28.601Z,63.50
2022-08-22T06:36:32.277Z,63.12
2022-08-22T06:39:02.447Z,63.70
2022-08-22T06:41:08.056Z,63.06
2022-08-22T06:43:12.056Z,62.73
2022-08-22T06:45:27.614Z,62.60
2022-08-22T06:47:33.371Z,62.41
2022-08-22T06:49:37.246Z,62.97
2022-08-22T06:51:39.615Z,62.46
2022-08-22T06:53:54.713Z,62.70
2022-08-22T06:55:59.396Z,62.44
2022-08-22T06:58:24.700Z,62.09
2022-08-22T07:00:27.014Z,62.32
2022-08-22T07:02:38.897Z,62.21
2022-08-22T07:04:40.478Z,62.28
2022-08-22T07:06:46.274Z,62.64
2022-08-22T07:08:54.076Z,62.41
2022-08-22T07:11:08.871Z,62.32
2022-08-22T07:13:16.295Z,62.11
2022-08-22T07:15:35.446Z,61.79
2022-08-22T07:17:40.616Z,62.24
2022-08-22T07:19:54.167Z,61.63
2022-08-22T07:21:57.287Z,61.65
2022-08-22T07:24:01.287Z,61.72
2022-08-22T07:26:22.370Z,61.58
2022-08-22T07:28:51.280Z,61.30
2022-08-22T07:31:07.128Z,61.29
2022-08-22T07:33:25.752Z,60.81
2022-08-22T07:35:35.465Z,61.24
2022-08-22T07:37:55.484Z,60.95
2022-08-22T07:40:28.235Z,60.82
2022-08-22T07:42:48.055Z,61.18
2022-08-22T07:45:15.508Z,60.78
2022-08-22T07:47:26.236Z,61.25
2022-08-22T07:49:50.390Z,61.94
2022-08-22T07:52:04.051Z,60.82
2022-08-22T07:54:11.516Z,61.00
2022-08-22T07:56:19.618Z,60.90
2022-08-22T07:58:25.198Z,60.25
2022-08-22T08:00:29.536Z,60.64
2022-08-22T08:02:31.342Z,60.38
2022-08-22T08:04:39.976Z,59.95
2022-08-22T08:06:41.953Z,60.01
2022-08-22T08:08:44.781Z,59.85
2022-08-22T08:10:50.715Z,59.70
2022-08-22T08:13:02.758Z,59.78
2022-08-22T08:15:09.259Z,60.34
2022-08-22T08:17:33.009Z,59.74
2022-08-22T08:19:38.603Z,59.38
2022-08-22T08:21:46.974Z,59.32
2022-08-22T08:23:49.451Z,59.27
2022-08-22T08:26:12.243Z,58.90
2022-08-22T08:28:33.212Z,58.46
2022-08-22T08:30:43.202Z,58.48
2022-08-22T08:32:57.592Z,58.48
2022-08-22T08:35:25.593Z,58.64
2022-08-22T08:37:36.523Z,58.71
2022-08-22T08:39:43.664Z,58.46
2022-08-22T08:42:00.305Z,58.58
2022-08-22T08:44:07.794Z,58.53
2022-08-22T08:46:25.479Z,58.51
2022-08-22T08:49:06.289Z,57.80
2022-08-22T08:51:45.730Z,58.19
2022-08-22T08:54:12.143Z,58.43
2022-08-22T08:56:20.053Z,58.08
2022-08-22T08:58:21.527Z,57.91
2022-08-22T09:00:42.929Z,57.78
2022-08-22T09:02:53.472Z,57.74
2022-08-22T09:05:37.393Z,58.35
2022-08-22T09:08:14.056Z,58.69
2022-08-22T09:10:27.437Z,57.86
2022-08-22T09:12:56.512Z,57.32
2022-08-22T09:15:37.565Z,57.44
2022-08-22T09:17:55.892Z,57.26
2022-08-22T09:20:24.491Z,57.20
2022-08-22T09:23:10.975Z,57.36
2022-08-22T09:25:23.576Z,57.41
2022-08-22T09:27:29.508Z,57.19
2022-08-22T09:29:54.557Z,56.86
2022-08-22T09:32:24.769Z,56.88
2022-08-22T09:34:37.190Z,57.09
2022-08-22T09:37:08.981Z,56.84
2022-08-22T09:39:15.686Z,57.06
2022-08-22T09:41:44.928Z,57.33
2022-08-22T09:43:52.590Z,56.53
2022-08-22T09:46:09.476Z,56.43
2022-08-22T09:48:14.642Z,56.73
2022-08-22T09:50:33.251Z,56.11
2022-08-22T09:53:10.038Z,56.15
2022-08-22T09:55:35.010Z,55.30
2022-08-22T09:58:05.720Z,55.34
2022-08-22T10:00:13.548Z,55.16
2022-08-22T10:02:45.856Z,55.25
2022-08-22T10:05:40.572Z,55.15
2022-08-22T10:08:05.213Z,51.39
2022-08-22T10:10:21.528Z,53.07
2022-08-22T10:13:01.517Z,54.72
2022-08-22T10:15:28.695Z,54.26
2022-08-22T10:17:41.034Z,50.44
2022-08-22T10:19:58.811Z,52.10
2022-08-22T10:22:37.050Z,51.69
2022-08-22T10:24:51.774Z,55.09
2022-08-22T10:26:58.025Z,52.10
2022-08-22T10:29:10.684Z,54.48
2022-08-22T10:31:59.267Z,54.19
2022-08-22T10:34:04.894Z,54.12
2022-08-22T10:36:49.831Z,51.91
2022-08-22T10:38:54.651Z,49.99
2022-08-22T10:41:09.638Z,52.35
2022-08-22T10:43:19.634Z,49.65
2022-08-22T10:45:37.051Z,44.74
2022-08-22T10:47:50.718Z,44.98
2022-08-22T10:49:56.703Z,44.27
2022-08-22T10:52:15.900Z,44.87
2022-08-22T10:54:40.637Z,44.57
2022-08-22T10:57:03.587Z,45.67
2022-08-22T10:59:32.806Z,44.65
2022-08-22T11:01:45.304Z,48.35
2022-08-22T11:04:01.012Z,49.29
2022-08-22T11:06:12.790Z,44.21
2022-08-22T11:08:31.428Z,47.23
2022-08-22T11:10:54.650Z,49.99
2022-08-22T11:13:14.337Z,50.49
2022-08-22T11:15:42.551Z,51.46
2022-08-22T11:17:59.480Z,53.25
2022-08-22T11:20:30.046Z,42.25
2022-08-22T11:23:16.458Z,41.49
2022-08-22T11:25:36.031Z,44.38
2022-08-22T11:27:47.738Z,43.91
2022-08-22T11:30:05.523Z,42.48
2022-08-22T11:32:37.786Z,46.08
2022-08-22T11:35:17.708Z,42.13
2022-08-22T11:37:43.306Z,45.39
2022-08-22T11:40:04.668Z,52.14
2022-08-22T11:42:29.644Z,45.45
2022-08-22T11:44:53.788Z,49.21
2022-08-22T11:46:57.320Z,44.20
2022-08-22T11:49:16.509Z,44.08
2022-08-22T11:51:41.636Z,41.37
2022-08-22T11:54:04.159Z,43.51
2022-08-22T11:56:37.728Z,40.23
2022-08-22T11:59:17.625Z,41.57
2022-08-22T12:01:36.329Z,40.25
2022-08-22T12:03:53.978Z,41.25
2022-08-22T12:06:09.181Z,40.38
2022-08-22T12:08:30.877Z,42.53
2022-08-22T12:10:37.540Z,53.11
2022-08-22T12:13:01.210Z,52.88
2022-08-22T12:15:24.640Z,54.89
2022-08-22T12:18:01.918Z,51.83
2022-08-22T12:20:34.163Z,45.92
2022-08-22T12:23:01.122Z,42.47
2022-08-22T12:25:10.692Z,40.68
2022-08-22T12:27:29.133Z,39.33
2022-08-22T12:30:01.538Z,46.32
2022-08-22T12:32:27.566Z,42.09
2022-08-22T12:34:38.365Z,39.10
2022-08-22T12:37:13.724Z,41.35
2022-08-22T12:39:24.608Z,50.28
2022-08-22T12:41:46.776Z,50.29
2022-08-22T12:44:00.827Z,45.65
2022-08-22T12:46:13.123Z,44.33
2022-08-22T12:48:54.906Z,41.80
2022-08-22T12:51:21.081Z,44.29
2022-08-22T12:53:56.052Z,48.63
2022-08-22T12:56:03.797Z,55.26
2022-08-22T12:58:41.129Z,46.45
2022-08-22T13:00:48.795Z,55.67
2022-08-22T13:02:55.052Z,56.36
2022-08-22T13:05:09.065Z,56.00
2022-08-22T13:07:24.212Z,44.67
2022-08-22T13:09:28.905Z,39.25
2022-08-22T13:11:39.628Z,48.19
2022-08-22T13:13:56.163Z,46.05
2022-08-22T13:16:05.354Z,41.86
2022-08-22T13:18:30.361Z,40.57
2022-08-22T13:20:43.343Z,43.27
2022-08-22T13:22:45.882Z,41.66
2022-08-22T13:24:56.729Z,40.26
2022-08-22T13:27:06.427Z,43.40
2022-08-22T13:29:26.848Z,45.26
2022-08-22T13:31:32.139Z,43.87
2022-08-22T13:33:47.003Z,38.63
2022-08-22T13:36:16.678Z,55.08
2022-08-22T13:38:28.169Z,53.26
2022-08-22T13:40:32.667Z,44.05
2022-08-22T13:42:43.376Z,54.14
2022-08-22T13:44:54.176Z,41.70
2022-08-22T13:47:14.162Z,38.96
2022-08-22T13:49:36.585Z,38.70
2022-08-22T13:52:03.272Z,52.77
2022-08-22T13:54:40.255Z,52.68
2022-08-22T13:56:51.806Z,54.54
2022-08-22T13:58:59.200Z,54.34
2022-08-22T14:01:25.548Z,55.79
2022-08-22T14:03:48.756Z,40.99
2022-08-22T14:05:55.714Z,45.93
2022-08-22T14:08:14.987Z,40.92
2022-08-22T14:10:26.153Z,38.56
2022-08-22T14:12:50.936Z,43.29
2022-08-22T14:14:59.870Z,49.26
2022-08-22T14:17:02.493Z,52.11
2022-08-22T14:19:12.341Z,40.70
2022-08-22T14:21:27.367Z,38.72
2022-08-22T14:23:29.604Z,49.82
2022-08-22T14:25:38.968Z,43.73
2022-08-22T14:28:09.233Z,40.21
2022-08-22T14:30:13.972Z,42.16
2022-08-22T14:32:23.353Z,48.52
2022-08-22T14:34:31.953Z,54.11
2022-08-22T14:36:44.421Z,52.65
2022-08-22T14:38:56.305Z,51.41
2022-08-22T14:41:05.447Z,51.17
2022-08-22T14:43:28.559Z,54.33
2022-08-22T14:45:40.602Z,55.66
2022-08-22T14:48:29.630Z,55.96
2022-08-22T14:50:38.751Z,50.07
2022-08-22T14:52:45.566Z,54.50
2022-08-22T14:54:47.643Z,55.18
2022-08-22T14:56:53.221Z,44.06
2022-08-22T14:59:05.682Z,54.24
2022-08-22T15:01:11.566Z,55.10
2022-08-22T15:03:24.927Z,55.54
2022-08-22T15:05:26.468Z,47.81
2022-08-22T15:07:32.426Z,52.91
2022-08-22T15:09:40.429Z,55.68
2022-08-22T15:11:48.168Z,54.92
2022-08-22T15:13:53.674Z,51.83
2022-08-22T15:16:01.528Z,55.40
2022-08-22T15:18:28.183Z,56.10
2022-08-22T15:20:45.378Z,38.78
2022-08-22T15:22:52.855Z,51.51
2022-08-22T15:25:00.132Z,46.42
2022-08-22T15:27:02.508Z,47.57
2022-08-22T15:29:18.383Z,45.76
2022-08-22T15:31:22.412Z,53.08
2022-08-22T15:33:32.361Z,54.73
2022-08-22T15:35:38.822Z,39.86
2022-08-22T15:38:02.888Z,38.40
2022-08-22T15:40:27.437Z,43.59
2022-08-22T15:42:37.541Z,41.37
2022-08-22T15:44:44.293Z,53.25
2022-08-22T15:46:52.195Z,55.73
2022-08-22T15:49:10.590Z,56.33
2022-08-22T15:51:30.737Z,56.60
2022-08-22T15:54:16.312Z,56.74
2022-08-22T15:56:39.533Z,56.79
2022-08-22T15:59:26.309Z,57.59
2022-08-22T16:01:41.240Z,56.04
2022-08-22T16:03:55.908Z,55.16
2022-08-22T16:06:07.477Z,46.25
2022-08-22T16:08:14.407Z,48.83
2022-08-22T16:10:22.008Z,50.42
2022-08-22T16:12:31.874Z,49.15
2022-08-22T16:14:33.481Z,53.20
2022-08-22T16:16:50.116Z,52.97
2022-08-22T16:18:51.581Z,54.47
2022-08-22T16:20:54.389Z,54.52
2022-08-22T16:22:58.821Z,54.79
2022-08-22T16:25:03.046Z,55.34
2022-08-22T16:27:24.247Z,48.31
2022-08-22T16:29:41.556Z,48.10
2022-08-22T16:31:46.025Z,50.23
2022-08-22T16:33:47.873Z,51.61
2022-08-22T16:36:14.119Z,53.31
2022-08-22T16:38:26.498Z,54.67
2022-08-22T16:40:28.166Z,54.38
2022-08-22T16:42:52.972Z,55.02
2022-08-22T16:45:05.421Z,52.68
2022-08-22T16:47:14.259Z,54.94
2022-08-22T16:49:32.183Z,56.13
2022-08-22T16:51:34.023Z,56.16
2022-08-22T16:53:35.467Z,56.32
2022-08-22T16:56:06.692Z,56.08
2022-08-22T16:58:22.520Z,55.99
2022-08-22T17:00:36.289Z,56.32
2022-08-22T17:02:52.939Z,56.64
2022-08-22T17:05:22.856Z,56.55
2022-08-22T17:07:30.125Z,56.47
2022-08-22T17:09:53.150Z,57.16
2022-08-22T17:12:04.328Z,56.36
2022-08-22T17:14:14.117Z,56.67
2022-08-22T17:16:21.655Z,56.62
2022-08-22T17:18:57.371Z,56.83
2022-08-22T17:21:15.403Z,57.13
2022-08-22T17:23:48.001Z,57.15
2022-08-22T17:26:10.285Z,56.74
2022-08-22T17:28:23.852Z,56.62
2022-08-22T17:30:36.859Z,56.36
2022-08-22T17:33:10.416Z,56.99
2022-08-22T17:35:30.155Z,56.68
2022-08-22T17:37:48.783Z,56.71
2022-08-22T17:40:48.716Z,57.12
2022-08-22T17:42:50.188Z,56.37
2022-08-22T17:45:07.133Z,56.49
2022-08-22T17:47:16.142Z,55.74
2022-08-22T17:49:27.530Z,56.01
2022-08-22T17:51:59.578Z,56.70
2022-08-22T17:54:12.573Z,56.48
2022-08-22T17:56:24.291Z,56.17
2022-08-22T17:58:31.627Z,56.05
2022-08-22T18:00:53.784Z,54.16
2022-08-22T18:02:59.168Z,55.46
2022-08-22T18:05:20.316Z,56.58
2022-08-22T18:07:29.749Z,56.20
2022-08-22T18:09:39.211Z,55.87
2022-08-22T18:12:04.852Z,56.45
2022-08-22T18:14:49.148Z,57.46
2022-08-22T18:16:53.839Z,57.11
2022-08-22T18:19:16.953Z,56.73
2022-08-22T18:21:25.714Z,57.39
2022-08-22T18:23:36.308Z,57.57
2022-08-22T18:25:56.900Z,57.33
2022-08-22T18:28:06.450Z,57.54
2022-08-22T18:30:11.063Z,57.82
2022-08-22T18:32:20.980Z,57.84
2022-08-22T18:34:29.958Z,58.03
2022-08-22T18:36:38.956Z,58.22
2022-08-22T18:39:06.876Z,58.43
2022-08-22T18:41:34.671Z,58.66
2022-08-22T18:43:41.702Z,58.51
2022-08-22T18:45:45.971Z,58.78
2022-08-22T18:47:57.173Z,58.59
2022-08-22T18:50:02.555Z,58.73
2022-08-22T18:52:10.044Z,58.57
2022-08-22T18:54:11.502Z,59.00
2022-08-22T18:56:24.838Z,58.97
2022-08-22T18:58:33.546Z,58.99
2022-08-22T19:01:00.010Z,59.27
2022-08-22T19:03:04.384Z,59.28
2022-08-22T19:05:19.561Z,59.29
2022-08-22T19:07:53.084Z,59.33
2022-08-22T19:10:27.670Z,59.42
2022-08-22T19:12:35.594Z,59.22
2022-08-22T19:15:09.321Z,59.50
2022-08-22T19:17:13.919Z,59.50
2022-08-22T19:20:12.128Z,59.48
2022-08-22T19:22:19.496Z,59.70
2022-08-22T19:24:26.895Z,59.48
2022-08-22T19:26:36.747Z,59.73
2022-08-22T19:28:38.355Z,59.77
2022-08-22T19:30:53.162Z,59.82
2022-08-22T19:33:03.133Z,59.78
2022-08-22T19:35:35.217Z,59.80
2022-08-22T19:37:55.529Z,59.64
2022-08-22T19:40:00.319Z,59.56
2022-08-22T19:42:01.959Z,59.39
2022-08-22T19:44:03.883Z,59.28
2022-08-22T19:46:11.945Z,59.25
2022-08-22T19:48:14.622Z,59.30
2022-08-22T19:50:16.163Z,58.85
2022-08-22T19:52:24.863Z,59.13
2022-08-22T19:54:28.330Z,58.99
2022-08-22T19:56:41.960Z,59.03
2022-08-22T19:59:25.649Z,59.13
2022-08-22T20:01:40.084Z,58.83
2022-08-22T20:03:55.984Z,59.18
2022-08-22T20:06:43.628Z,59.21
2022-08-22T20:09:10.573Z,58.95
2022-08-22T20:11:27.049Z,58.88
2022-08-22T20:13:32.988Z,59.20
2022-08-22T20:16:00.023Z,58.83
2022-08-22T20:20:24.059Z,58.83
2022-08-22T20:22:39.104Z,58.98
2022-08-22T20:25:01.605Z,59.13
2022-08-22T20:27:14.603Z,58.75
2022-08-22T20:29:17.472Z,58.71
2022-08-22T20:31:23.856Z,58.70
2022-08-22T20:33:31.794Z,59.03
2022-08-22T20:35:33.231Z,58.89
2022-08-22T20:38:05.246Z,59.05
2022-08-22T20:40:57.057Z,59.10
2022-08-22T20:42:50.283Z,59.05
2022-08-22T20:44:54.066Z,58.85
2022-08-22T20:47:07.602Z,58.53
2022-08-22T20:49:21.016Z,58.78
2022-08-22T20:51:25.807Z,55.92
2022-08-22T20:53:27.318Z,56.61
2022-08-22T20:55:31.654Z,57.76
2022-08-22T20:57:35.691Z,58.62
2022-08-22T20:59:41.412Z,58.69
2022-08-22T21:01:44.699Z,58.92
2022-08-22T21:03:50.083Z,58.89
2022-08-22T21:05:51.790Z,58.87
2022-08-22T21:08:07.111Z,58.76
2022-08-22T21:10:40.011Z,57.71
2022-08-22T21:12:41.628Z,57.04
2022-08-22T21:14:46.360Z,58.58
2022-08-22T21:16:48.511Z,59.01
2022-08-22T21:18:52.457Z,59.14
2022-08-22T21:20:54.809Z,59.52
2022-08-22T21:23:02.827Z,59.38
2022-08-22T21:25:05.103Z,59.76
2022-08-22T21:27:07.666Z,59.86
2022-08-22T21:29:12.094Z,59.94
2022-08-22T21:31:19.627Z,59.82
2022-08-22T21:33:24.619Z,59.84
2022-08-22T21:35:30.072Z,59.64
2022-08-22T21:37:39.735Z,59.39
2022-08-22T21:39:48.017Z,59.46
2022-08-22T21:42:21.837Z,59.76
2022-08-22T21:44:35.835Z,56.08
2022-08-22T21:46:37.398Z,59.09
2022-08-22T21:48:58.386Z,58.49
2022-08-22T21:51:21.819Z,59.67
2022-08-22T21:53:27.915Z,55.93
2022-08-22T21:55:38.402Z,56.52
2022-08-22T21:57:39.971Z,57.90
2022-08-22T21:59:51.525Z,59.07
2022-08-22T22:02:31.160Z,59.99
2022-08-22T22:04:32.934Z,59.81
2022-08-22T22:06:36.866Z,59.74
2022-08-22T22:08:38.365Z,59.75
2022-08-22T22:10:42.315Z,60.23
2022-08-22T22:12:45.549Z,59.86
2022-08-22T22:14:51.214Z,60.12
2022-08-22T22:16:52.723Z,60.10
2022-08-22T22:18:55.262Z,59.96
2022-08-22T22:20:57.478Z,55.90
2022-08-22T22:22:59.161Z,59.93
2022-08-22T22:25:00.662Z,59.67
2022-08-22T22:27:03.513Z,60.07
2022-08-22T22:29:05.102Z,58.77
2022-08-22T22:31:07.618Z,59.54
2022-08-22T22:33:10.076Z,57.12
2022-08-22T22:35:11.560Z,57.66
2022-08-22T22:37:15.613Z,57.73
2022-08-22T22:39:17.196Z,58.00
2022-08-22T22:41:21.191Z,56.23
2022-08-22T22:43:22.790Z,59.18
2022-08-22T22:45:24.397Z,57.29
2022-08-22T22:47:27.676Z,58.23
2022-08-22T22:49:31.076Z,58.68
2022-08-22T22:51:32.807Z,58.07
2022-08-22T22:53:40.512Z,55.82
2022-08-22T22:55:44.720Z,58.56
2022-08-22T22:57:46.269Z,54.95
2022-08-22T22:59:48.174Z,57.20
2022-08-22T23:02:10.305Z,53.64
2022-08-22T23:04:11.832Z,57.64
2022-08-22T23:06:19.237Z,58.41
2022-08-22T23:08:20.736Z,56.69
2022-08-22T23:10:22.430Z,51.72
2022-08-22T23:12:25.985Z,54.81
2022-08-22T23:14:27.603Z,54.73
2022-08-22T23:16:33.981Z,55.53
2022-08-22T23:18:38.810Z,56.85
2022-08-22T23:20:40.318Z,57.34
2022-08-22T23:22:44.960Z,53.48
2022-08-22T23:24:48.909Z,53.36
2022-08-22T23:26:50.510Z,55.58
2022-08-22T23:28:52.007Z,57.54
2022-08-22T23:30:53.588Z,57.52
2022-08-22T23:32:55.687Z,53.63
2022-08-22T23:34:57.468Z,55.37
2022-08-22T23:37:01.238Z,56.08
2022-08-22T23:39:04.546Z,56.98
2022-08-22T23:41:09.874Z,56.09
2022-08-22T23:43:11.523Z,53.91
2022-08-22T23:45:13.123Z,53.31
2022-08-22T23:47:15.245Z,53.82
2022-08-22T23:49:17.400Z,53.95
2022-08-22T23:51:23.189Z,55.02
2022-08-22T23:53:24.891Z,56.65
2022-08-22T23:55:26.399Z,57.71
2022-08-22T23:57:29.445Z,57.87
2022-08-22T23:59:33.984Z,58.43
